Time;durP1;ratioP1;P1;durP2;ratioP2;P2;SDS_P1;SDS_P2;PMS_P1;PMS_P2;Temp;Humidity;BMP_temperature;BMP_pressure;BME280_temperature;BME280_humidity;BME280_pressure;Samples;Min_cycle;Max_cycle;Signal;HPM_P1;HPM_P2
2023/08/05 00:05:49;;;;;;;11.60;7.63;;;;;;;15.68;70.19;101012.88;15609199;28;20045;-55
2023/08/05 00:13:21;;;;;;;12.93;7.00;;;;;;;15.70;70.13;101029.69;15655869;22;20866;-55
2023/08/05 00:20:56;;;;;;;8.20;6.18;;;;;;;15.60;70.16;101037.53;15668789;28;20052;-55
2023/08/05 00:28:29;;;;;;;8.60;5.93;;;;;;;15.50;69.93;101040.03;15669162;28;20553;-53
2023/08/05 00:36:04;;;;;;;8.70;5.95;;;;;;;15.49;70.05;101032.97;15668930;28;20499;-55
2023/08/05 00:43:38;;;;;;;8.27;5.97;;;;;;;15.17;70.86;101027.91;15669225;28;20132;-52
2023/08/05 00:51:12;;;;;;;7.57;5.80;;;;;;;15.36;70.72;101027.78;15651411;28;20049;-52
2023/08/05 00:58:45;;;;;;;6.55;5.10;;;;;;;15.41;70.53;101022.50;15667639;28;20041;-52
2023/08/05 01:06:22;;;;;;;8.02;5.65;;;;;;;15.53;70.06;101020.63;15667702;28;20116;-52
2023/08/05 01:13:55;;;;;;;6.13;4.90;;;;;;;15.48;69.93;101010.50;15637344;28;20050;-52
2023/08/05 01:21:38;;;;;;;8.90;5.00;;;;;;;15.36;70.41;101000.75;15621230;28;20099;-53
2023/08/05 01:29:13;;;;;;;5.95;4.78;;;;;;;15.37;70.62;101003.22;15620227;28;20049;-53
2023/08/05 01:36:46;;;;;;;5.97;4.28;;;;;;;15.42;70.91;100995.19;15620654;28;20041;-53
2023/08/05 01:44:22;;;;;;;5.78;4.07;;;;;;;15.59;70.55;100998.03;15621273;28;20046;-53
2023/08/05 01:51:58;;;;;;;6.03;4.07;;;;;;;15.56;70.80;100998.50;15619818;28;20069;-54
2023/08/05 01:59:36;;;;;;;5.38;3.75;;;;;;;15.66;70.37;100985.22;15618696;28;20037;-55
2023/08/05 02:07:09;;;;;;;8.25;4.18;;;;;;;15.54;71.33;101001.44;15602831;28;20387;-56
2023/08/05 02:14:43;;;;;;;6.65;3.75;;;;;;;15.59;71.42;101005.31;15654438;28;20090;-54
2023/08/05 02:22:17;;;;;;;3.90;3.33;;;;;;;15.55;72.04;101004.97;15662738;28;20504;-55
2023/08/05 02:29:56;;;;;;;6.63;3.90;;;;;;;15.57;72.08;101005.53;15661571;28;20102;-53
2023/08/05 02:37:29;;;;;;;6.28;3.78;;;;;;;15.50;72.94;101023.78;15676525;28;20048;-53
2023/08/05 02:45:04;;;;;;;8.52;4.10;;;;;;;15.60;72.27;101018.59;15662170;28;20486;-52
2023/08/05 02:52:37;;;;;;;8.98;3.47;;;;;;;15.75;72.03;101027.09;15660513;28;20049;-52
2023/08/05 03:00:12;;;;;;;6.63;3.50;;;;;;;15.68;72.03;101031.81;15678680;28;20143;-53
2023/08/05 03:07:45;;;;;;;8.25;3.60;;;;;;;15.44;72.98;101025.56;15660926;28;20068;-53
2023/08/05 03:15:20;;;;;;;7.95;4.20;;;;;;;15.54;72.66;101035.78;15643690;28;20460;-52
2023/08/05 03:22:58;;;;;;;11.32;4.43;;;;;;;15.35;73.06;101015.34;15643722;28;20045;-53
2023/08/05 03:30:33;;;;;;;8.43;4.35;;;;;;;15.32;73.78;101009.31;15677055;28;20073;-51
2023/08/05 03:38:07;;;;;;;10.88;4.53;;;;;;;15.51;73.38;101012.72;15659293;28;20041;-52
2023/08/05 03:45:49;;;;;;;7.05;4.13;;;;;;;15.62;72.65;101015.66;15659223;28;20037;-52
2023/08/05 03:53:22;;;;;;;10.77;4.15;;;;;;;15.43;73.82;101010.38;15668830;28;20580;-52
2023/08/05 04:00:59;;;;;;;9.25;4.10;;;;;;;15.78;72.43;101021.22;15671363;28;20049;-54
2023/08/05 04:08:32;;;;;;;9.88;4.50;;;;;;;15.85;71.88;101023.78;15670852;28;20087;-51
2023/08/05 04:16:08;;;;;;;;;;;;;;;16.03;71.43;101020.09;15640786;28;20053;-54
2023/08/05 04:23:42;;;;;;;8.25;4.82;;;;;;;15.97;71.85;101037.31;15624367;28;19921;-56
2023/08/05 04:31:18;;;;;;;8.68;4.15;;;;;;;16.00;71.43;101040.38;15623516;28;20068;-56
2023/08/05 04:38:52;;;;;;;4.20;3.67;;;;;;;16.16;71.34;101027.94;15623935;28;20459;-52
2023/08/05 04:46:28;;;;;;;8.70;4.00;;;;;;;16.27;71.42;101040.66;15624228;28;20410;-54
2023/08/05 04:54:02;;;;;;;8.35;4.03;;;;;;;16.37;71.27;101048.16;15623046;28;20052;-54
2023/08/05 05:01:37;;;;;;;9.00;3.83;;;;;;;16.21;71.51;101029.94;15623347;28;20128;-54
2023/08/05 05:09:11;;;;;;;7.63;4.53;;;;;;;16.28;71.63;101042.28;15623149;28;20045;-52
2023/08/05 05:16:45;;;;;;;8.10;4.28;;;;;;;16.35;71.95;101057.56;15675968;28;20120;-52
2023/08/05 05:24:19;;;;;;;8.95;4.60;;;;;;;16.58;70.88;101065.59;15683685;28;20041;-54
2023/08/05 05:31:53;;;;;;;12.55;4.15;;;;;;;16.93;69.38;101051.94;15665639;28;20048;-54
2023/08/05 05:39:26;;;;;;;7.75;4.00;;;;;;;16.68;70.77;101063.09;15683981;28;20119;-53
2023/08/05 05:47:00;;;;;;;7.85;3.72;;;;;;;16.84;71.36;101058.81;15683090;28;20079;-53
2023/08/05 05:54:35;;;;;;;9.60;3.70;;;;;;;17.69;67.83;101055.00;15682323;28;20766;-53
2023/08/05 06:02:10;;;;;;;10.15;3.00;;;;;;;18.49;65.76;101050.88;15681573;28;20076;-53
2023/08/05 06:09:43;;;;;;;9.10;3.40;;;;;;;18.18;67.35;101047.00;15675964;22;20554;-49
2023/08/05 06:17:18;;;;;;;6.55;3.05;;;;;;;18.42;66.21;101050.28;15645888;28;20163;-48
2023/08/05 06:24:51;;;;;;;6.50;3.08;;;;;;;18.61;65.56;101048.03;15680471;28;20041;-51
2023/08/05 06:32:26;;;;;;;6.70;2.90;;;;;;;18.47;66.51;101046.81;15680074;28;20091;-50
2023/08/05 06:39:59;;;;;;;7.80;3.03;;;;;;;19.15;64.60;101049.91;15679794;28;20049;-47
2023/08/05 06:47:33;;;;;;;9.18;3.40;;;;;;;18.02;66.12;101062.28;15661389;28;20044;-47
2023/08/05 06:55:07;;;;;;;5.45;3.25;;;;;;;17.83;68.45;101056.34;15678554;28;20405;-47
2023/08/05 07:02:41;;;;;;;11.30;3.58;;;;;;;18.39;66.85;101047.25;15660353;28;20041;-47
2023/08/05 07:10:14;;;;;;;7.00;3.30;;;;;;;18.41;66.91;101037.75;15677504;28;20049;-48
2023/08/05 07:17:51;;;;;;;6.13;2.78;;;;;;;19.02;64.21;101034.84;15615748;28;20044;-50
2023/08/05 07:25:24;;;;;;;6.78;3.20;;;;;;;18.63;66.69;101035.00;15597804;28;20041;-48
2023/08/05 07:33:00;;;;;;;11.40;3.17;;;;;;;18.88;64.93;101036.34;15614943;28;20103;-49
2023/08/05 07:40:33;;;;;;;9.85;2.97;;;;;;;18.75;65.41;101029.44;15597147;28;20049;-47
2023/08/05 07:48:09;;;;;;;9.85;3.63;;;;;;;19.31;64.49;101033.44;15614457;28;20046;-49
2023/08/05 07:55:42;;;;;;;6.88;2.92;;;;;;;19.81;62.90;101037.59;15597194;28;20118;-47
2023/08/05 08:03:17;;;;;;;7.22;2.75;;;;;;;19.41;63.88;101031.88;15613899;28;20041;-47
2023/08/05 08:10:50;;;;;;;9.27;3.20;;;;;;;19.56;64.09;101026.53;15618406;28;20068;-50
2023/08/05 08:18:25;;;;;;;10.70;3.30;;;;;;;19.68;63.29;101024.47;15658395;28;20076;-48
2023/08/05 08:25:59;;;;;;;7.55;2.90;;;;;;;20.27;62.61;101017.88;15657844;28;20041;-47
2023/08/05 08:33:33;;;;;;;7.47;2.60;;;;;;;21.05;62.14;101020.50;15655094;28;20509;-48
2023/08/05 08:41:06;;;;;;;5.97;2.30;;;;;;;21.51;58.40;101020.47;15684255;28;20077;-49
2023/08/05 08:48:43;;;;;;;5.47;2.55;;;;;;;22.10;58.99;101003.31;15668343;28;20056;-50
2023/08/05 08:56:16;;;;;;;5.20;2.38;;;;;;;21.88;56.75;101017.38;15685587;28;20489;-49
2023/08/05 09:03:52;;;;;;;4.80;2.50;;;;;;;22.09;53.31;100988.00;15667935;28;20124;-47
2023/08/05 09:11:27;;;;;;;5.10;2.08;;;;;;;21.81;55.29;100994.97;15667014;28;20072;-48
2023/08/05 09:19:02;;;;;;;4.93;2.05;;;;;;;21.39;55.74;101007.91;15684399;28;20485;-49
2023/08/05 09:26:35;;;;;;;5.88;2.30;;;;;;;20.93;56.10;101000.84;15684071;28;20060;-48
2023/08/05 09:34:11;;;;;;;5.50;2.40;;;;;;;21.36;55.55;100996.75;15683208;28;20079;-52
2023/08/05 09:41:51;;;;;;;7.00;2.50;;;;;;;21.47;54.83;100981.97;15682936;28;20056;-50
2023/08/05 09:49:26;;;;;;;6.88;2.17;;;;;;;21.38;55.96;100967.25;15664472;28;20060;-50
2023/08/05 09:57:00;;;;;;;5.05;2.00;;;;;;;21.55;52.86;100973.22;15683411;28;20132;-48
2023/08/05 10:04:34;;;;;;;5.80;2.40;;;;;;;21.62;55.04;100959.25;15681891;28;20041;-48
2023/08/05 10:12:09;;;;;;;8.52;2.13;;;;;;;21.62;52.57;100910.88;15665935;28;20045;-50
2023/08/05 10:19:46;;;;;;;3.38;2.00;;;;;;;22.05;51.18;100943.19;15618755;28;20059;-49
2023/08/05 10:27:33;;;;;;;4.82;2.00;;;;;;;22.26;50.88;100960.34;15600675;28;20049;-51
2023/08/05 10:35:28;;;;;;;5.20;1.63;;;;;;;22.55;51.99;100958.50;15616970;28;20053;-47
2023/08/05 10:43:01;;;;;;;4.35;2.10;;;;;;;22.62;49.60;100950.78;15616246;28;20049;-51
2023/08/05 10:50:39;;;;;;;4.18;1.77;;;;;;;22.18;51.33;100942.63;15617790;28;20072;-49
2023/08/05 10:58:13;;;;;;;3.15;1.80;;;;;;;22.95;48.29;100931.94;15616206;28;20042;-50
2023/08/05 11:05:48;;;;;;;6.88;2.00;;;;;;;22.14;48.89;100917.75;15615381;28;20128;-49
2023/08/05 11:13:22;;;;;;;4.53;2.03;;;;;;;22.93;47.81;100904.00;15641065;28;20040;-50
2023/08/05 11:20:58;;;;;;;5.82;1.80;;;;;;;23.01;50.42;100902.59;15677330;28;20041;-48
2023/08/05 11:28:31;;;;;;;5.28;1.77;;;;;;;23.40;47.18;100892.25;15676948;28;20041;-52
2023/08/05 11:36:07;;;;;;;6.10;1.55;;;;;;;23.19;49.01;100888.16;15659979;28;20529;-48
2023/08/05 11:43:41;;;;;;;4.63;1.85;;;;;;;23.36;46.19;100882.19;15677447;28;20053;-51
2023/08/05 11:51:15;;;;;;;4.25;1.85;;;;;;;22.48;51.70;100877.88;15676519;28;20128;-50
2023/08/05 11:58:49;;;;;;;3.60;2.20;;;;;;;22.70;49.01;100874.66;15676206;28;20048;-49
2023/08/05 12:06:27;;;;;;;3.05;1.90;;;;;;;22.96;48.60;100870.59;15676409;28;20163;-50
2023/08/05 12:14:00;;;;;;;3.50;1.92;;;;;;;23.30;45.33;100865.00;15635670;28;20049;-51
2023/08/05 12:21:35;;;;;;;5.55;1.85;;;;;;;23.46;46.27;100862.91;15624462;28;20045;-47
2023/08/05 12:29:08;;;;;;;3.85;1.80;;;;;;;23.11;48.48;100858.66;15625084;28;20100;-51
2023/08/05 12:36:43;;;;;;;5.22;1.95;;;;;;;23.28;50.83;100853.53;15624619;28;20474;-46
2023/08/05 12:44:16;;;;;;;3.42;2.03;;;;;;;22.87;49.99;100848.47;15623194;28;20651;-47
2023/08/05 12:51:50;;;;;;;5.43;2.38;;;;;;;22.99;49.41;100855.50;15623917;28;20049;-47
2023/08/05 12:59:23;;;;;;;4.35;2.00;;;;;;;22.48;48.94;100845.88;15623392;28;20049;-49
2023/08/05 13:06:58;;;;;;;4.95;2.47;;;;;;;22.84;46.90;100849.06;15623031;28;20049;-50
2023/08/05 13:14:31;;;;;;;3.63;1.90;;;;;;;22.88;49.78;100852.03;15639547;28;20052;-46
2023/08/05 13:22:05;;;;;;;5.20;2.03;;;;;;;22.32;47.90;100847.91;15683926;28;20068;-46
2023/08/05 13:29:39;;;;;;;4.50;1.90;;;;;;;21.96;49.13;100849.22;15683903;28;20128;-49
2023/08/05 13:37:13;;;;;;;4.68;1.85;;;;;;;21.94;50.74;100835.03;15683681;28;20069;-48
2023/08/05 13:44:46;;;;;;;6.30;1.95;;;;;;;22.77;50.87;100826.69;15682689;28;20115;-48
2023/08/05 13:52:21;;;;;;;6.20;1.88;;;;;;;22.54;50.54;100816.53;15682287;28;20501;-46
2023/08/05 13:59:54;;;;;;;4.18;1.90;;;;;;;22.27;50.63;100811.56;15664018;28;20065;-52
2023/08/05 14:07:29;;;;;;;5.80;1.90;;;;;;;22.57;48.88;100794.91;15664162;28;20055;-47
2023/08/05 14:15:02;;;;;;;3.40;2.10;;;;;;;22.75;49.99;100785.09;15642309;28;20045;-46
2023/08/05 14:22:36;;;;;;;3.33;1.80;;;;;;;22.68;50.54;100784.66;15619503;28;20514;-46
2023/08/05 14:30:10;;;;;;;5.13;1.80;;;;;;;22.44;49.21;100775.59;15617996;28;20068;-48
2023/08/05 14:37:45;;;;;;;34.85;4.30;;;;;;;23.08;51.01;100756.03;15654491;28;20061;-53
2023/08/05 14:45:18;;;;;;;6.75;1.88;;;;;;;22.98;49.50;100771.75;15661551;28;20037;-51
2023/08/05 14:52:52;;;;;;;6.38;1.63;;;;;;;23.13;46.65;100766.91;15678069;28;20053;-48
2023/08/05 15:00:25;;;;;;;3.63;1.70;;;;;;;23.36;45.73;100757.03;15678279;28;20114;-51
2023/08/05 15:07:59;;;;;;;5.63;1.67;;;;;;;22.48;47.98;100754.78;15678594;28;20045;-47
2023/08/05 15:15:33;;;;;;;5.53;1.90;;;;;;;22.99;47.86;100743.25;15660893;28;20051;-49
2023/08/05 15:23:07;;;;;;;4.60;1.92;;;;;;;22.52;49.34;100729.28;15677566;28;20052;-48
2023/08/05 15:30:41;;;;;;;5.05;2.33;;;;;;;23.19;46.54;100714.81;15659446;28;20044;-48
2023/08/05 15:38:15;;;;;;;5.70;2.00;;;;;;;23.16;46.24;100721.69;15676929;28;20068;-53
2023/08/05 15:45:54;;;;;;;3.13;1.65;;;;;;;23.04;49.36;100713.91;15680200;28;20095;-49
2023/08/05 15:53:29;;;;;;;3.15;1.95;;;;;;;22.61;49.42;100713.03;15671987;28;20037;-46
2023/08/05 16:01:03;;;;;;;5.72;1.98;;;;;;;23.02;46.91;100702.44;15690412;28;20049;-50
2023/08/05 16:08:38;;;;;;;6.47;1.85;;;;;;;23.00;46.78;100690.97;15689138;28;20144;-49
2023/08/05 16:16:15;;;;;;;6.40;2.13;;;;;;;22.70;49.61;100681.19;15639836;28;20045;-49
2023/08/05 16:23:52;;;;;;;3.85;2.28;;;;;;;22.96;48.60;100676.25;15624416;28;20518;-50
2023/08/05 16:31:26;;;;;;;3.40;2.10;;;;;;;22.94;48.29;100669.41;15624008;28;20041;-48
2023/08/05 16:39:01;;;;;;;3.92;2.03;;;;;;;22.79;48.39;100663.00;15623752;28;20091;-47
2023/08/05 16:46:37;;;;;;;4.40;2.05;;;;;;;22.58;50.86;100658.91;15607562;28;20064;-49
2023/08/05 16:54:11;;;;;;;5.85;2.38;;;;;;;22.57;51.07;100654.53;15623658;28;20498;-46
2023/08/05 17:01:44;;;;;;;6.38;2.35;;;;;;;22.41;52.95;100645.69;15622966;28;20621;-47
2023/08/05 17:09:20;;;;;;;9.18;2.20;;;;;;;22.33;52.87;100640.88;15623146;28;20038;-50
2023/08/05 17:16:54;;;;;;;5.68;2.22;;;;;;;22.24;53.25;100640.69;15677264;28;20128;-55
2023/08/05 17:24:28;;;;;;;5.75;2.38;;;;;;;22.08;55.13;100642.75;15666094;28;20076;-48
2023/08/05 17:32:02;;;;;;;6.97;2.40;;;;;;;21.94;55.46;100639.06;15665432;28;20048;-49
2023/08/05 17:39:37;;;;;;;4.82;2.80;;;;;;;21.90;55.75;100636.09;15665163;28;20045;-47
2023/08/05 17:47:09;;;;;;;4.18;2.55;;;;;;;21.90;54.31;100632.56;15683935;28;20049;-50
2023/08/05 17:54:44;;;;;;;5.20;2.75;;;;;;;21.79;55.99;100634.56;15682743;28;20049;-49
2023/08/05 18:02:17;;;;;;;8.45;4.75;;;;;;;21.42;56.45;100626.97;15682085;28;20045;-50
2023/08/05 18:09:51;;;;;;;5.93;3.90;;;;;;;21.33;57.68;100624.03;15663702;28;20480;-51
2023/08/05 18:17:24;;;;;;;7.05;3.05;;;;;;;21.29;57.60;100622.13;15656085;28;20076;-51
2023/08/05 18:24:58;;;;;;;5.38;3.08;;;;;;;21.03;58.77;100635.13;15662460;28;20048;-55
2023/08/05 18:32:31;;;;;;;6.80;3.58;;;;;;;21.00;58.51;100624.78;15680052;28;20560;-50
2023/08/05 18:40:07;;;;;;;7.50;4.10;;;;;;;20.84;59.96;100624.88;15679180;28;20052;-53
2023/08/05 18:47:40;;;;;;;7.65;3.97;;;;;;;20.84;60.16;100629.50;15679522;28;20053;-51
2023/08/05 18:55:14;;;;;;;;;;;;;;;20.83;59.43;100627.88;15679175;28;20049;-50
2023/08/05 19:02:49;;;;;;;13.45;4.80;;;;;;;20.77;58.71;100623.56;15678430;28;19974;-48
2023/08/05 19:10:23;;;;;;;9.13;5.63;;;;;;;20.65;59.01;100623.88;15677665;28;20049;-48
2023/08/05 19:17:56;;;;;;;7.72;5.63;;;;;;;20.60;59.35;100632.91;15659935;28;20045;-48
2023/08/05 19:25:31;;;;;;;10.40;5.32;;;;;;;20.03;59.10;100628.69;15676479;28;20102;-47
2023/08/05 19:33:05;;;;;;;10.07;5.55;;;;;;;20.07;58.79;100629.78;15679068;28;20120;-48
2023/08/05 19:40:43;;;;;;;10.80;5.43;;;;;;;20.42;59.41;100619.84;15659015;28;20435;-47
2023/08/05 19:48:16;;;;;;;9.77;4.78;;;;;;;20.24;59.97;100606.84;15676620;28;20128;-50
2023/08/05 19:55:50;;;;;;;9.65;5.10;;;;;;;20.19;60.31;100604.97;15658679;28;20111;-47
2023/08/05 20:03:24;;;;;;;10.40;5.40;;;;;;;20.14;61.01;100596.78;15676333;28;20479;-50
2023/08/05 20:10:58;;;;;;;9.25;5.85;;;;;;;20.15;60.98;100589.44;15652415;28;20133;-47
2023/08/05 20:18:31;;;;;;;9.52;6.75;;;;;;;20.09;61.22;100583.19;15614188;28;20046;-49
2023/08/05 20:26:09;;;;;;;;;;;;;;;20.01;61.39;100576.41;15597528;28;20052;-47
2023/08/05 20:33:42;;;;;;;10.70;7.25;;;;;;;20.01;60.65;100568.22;15618424;28;19924;-47
2023/08/05 20:41:17;;;;;;;;;;;;;;;19.96;60.65;100548.34;15687552;28;20537;-48
2023/08/05 20:48:52;;;;;;;10.27;6.15;;;;;;;19.93;60.73;100541.53;15668310;28;19986;-50
2023/08/05 20:56:26;;;;;;;10.77;6.72;;;;;;;19.78;60.94;100538.88;15667774;28;20091;-47
2023/08/05 21:04:00;;;;;;;10.75;6.47;;;;;;;19.64;60.56;100525.03;15667639;28;20053;-47
2023/08/05 21:11:34;;;;;;;;;;;;;;;19.47;60.53;100514.38;15668142;28;20052;-49
2023/08/05 21:19:07;;;;;;;10.43;6.80;;;;;;;18.96;62.08;100508.16;15667561;28;20023;-48
2023/08/05 21:26:44;;;;;;;11.05;7.43;;;;;;;18.96;61.59;100510.88;15684379;28;20036;-49
2023/08/05 21:34:17;;;;;;;15.50;7.50;;;;;;;18.71;62.94;100507.06;15683687;28;20395;-49
2023/08/05 21:41:52;;;;;;;10.93;6.70;;;;;;;18.85;63.09;100489.13;15683392;28;20059;-48
2023/08/05 21:49:25;;;;;;;12.18;6.38;;;;;;;19.06;62.12;100480.97;15664831;28;20079;-49
2023/08/05 21:56:59;;;;;;;10.10;5.93;;;;;;;18.61;63.96;100494.25;15665400;28;20088;-48
2023/08/05 22:04:32;;;;;;;11.80;6.15;;;;;;;18.79;63.82;100482.06;15682211;28;20444;-48
2023/08/05 22:12:07;;;;;;;9.80;6.45;;;;;;;19.11;63.49;100470.06;15650700;28;20067;-48
2023/08/05 22:19:40;;;;;;;9.35;6.68;;;;;;;19.07;63.40;100467.09;15619437;28;20041;-48
2023/08/05 22:27:14;;;;;;;15.80;7.25;;;;;;;18.39;65.57;100455.59;15619215;28;20537;-49
2023/08/05 22:34:48;;;;;;;12.25;7.43;;;;;;;18.60;65.40;100431.97;15617143;28;20042;-49
2023/08/05 22:42:22;;;;;;;;;;;;;;;18.70;64.96;100445.63;15618662;28;20133;-51
2023/08/05 22:49:55;;;;;;;9.30;7.07;;;;;;;18.70;64.86;100442.06;15617447;28;19929;-50
2023/08/05 22:57:30;;;;;;;10.68;7.50;;;;;;;18.15;66.86;100428.13;15617204;28;20048;-50
2023/08/05 23:05:03;;;;;;;10.25;7.45;;;;;;;18.35;66.72;100432.78;15617372;28;20053;-52
2023/08/05 23:12:38;;;;;;;7.68;6.80;;;;;;;18.34;67.04;100415.66;15617954;28;20045;-51
2023/08/05 23:20:12;;;;;;;12.15;7.93;;;;;;;18.41;67.08;100406.41;15659967;28;20064;-48
2023/08/05 23:27:49;;;;;;;18.73;8.05;;;;;;;18.58;66.85;100399.63;15677414;28;20055;-50
2023/08/05 23:35:23;;;;;;;9.82;7.43;;;;;;;18.61;66.84;100409.97;15643121;28;20045;-50
2023/08/05 23:42:58;;;;;;;10.75;8.38;;;;;;;18.32;68.04;100406.94;15659161;28;20130;-48
2023/08/05 23:50:30;;;;;;;12.95;8.15;;;;;;;18.26;67.90;100405.31;15643019;28;20052;-48
2023/08/05 23:58:05;;;;;;;;;;;;;;;18.10;69.28;100392.78;15677923;28;20045;-49
